createdAt,value
2022-11-17T00:01:41.042Z,101253.13
2022-11-17T00:04:12.437Z,101255.50
2022-11-17T00:06:42.919Z,101232.09
2022-11-17T00:09:20.454Z,101229.16
2022-11-17T00:12:10.842Z,101229.75
2022-11-17T00:14:43.725Z,101241.47
2022-11-17T00:17:15.382Z,101237.63
2022-11-17T00:20:08.005Z,101233.63
2022-11-17T00:22:37.951Z,101253.88
2022-11-17T00:25:08.786Z,101234.25
2022-11-17T00:27:39.161Z,101242.41
2022-11-17T00:30:10.086Z,101248.13
2022-11-17T00:32:58.945Z,101245.88
2022-11-17T00:35:28.966Z,101246.28
2022-11-17T00:38:17.240Z,101257.91
2022-11-17T00:40:47.389Z,101254.88
2022-11-17T00:43:18.490Z,101254.44
2022-11-17T00:45:48.971Z,101258.41
2022-11-17T00:48:20.439Z,101272.78
2022-11-17T00:50:51.039Z,101256.78
2022-11-17T00:53:21.303Z,101271.84
2022-11-17T00:55:52.415Z,101263.72
2022-11-17T00:58:22.542Z,101264.22
2022-11-17T01:00:53.817Z,101279.34
2022-11-17T01:03:24.041Z,101271.84
2022-11-17T01:05:54.569Z,101262.81
2022-11-17T01:08:24.745Z,101289.25
2022-11-17T01:10:55.575Z,101278.16
2022-11-17T01:13:26.149Z,101270.72
2022-11-17T01:15:56.311Z,101291.06
2022-11-17T01:18:26.359Z,101271.56
2022-11-17T01:20:56.360Z,101257.78
2022-11-17T01:23:27.986Z,101266.00
2022-11-17T01:26:07.908Z,101256.75
2022-11-17T01:28:38.701Z,101262.25
2022-11-17T01:31:13.075Z,101251.44
2022-11-17T01:33:44.396Z,101238.69
2022-11-17T01:36:17.483Z,101238.97
2022-11-17T01:38:47.579Z,101244.75
2022-11-17T01:41:25.028Z,101241.44
2022-11-17T01:44:00.743Z,101248.72
2022-11-17T01:46:36.610Z,101242.91
2022-11-17T01:49:05.972Z,101243.13
2022-11-17T01:51:40.146Z,101252.25
2022-11-17T01:54:15.045Z,101263.09
2022-11-17T01:56:48.684Z,101265.94
2022-11-17T01:59:30.698Z,101274.03
2022-11-17T02:02:01.428Z,101273.50
2022-11-17T02:04:43.182Z,101271.13
2022-11-17T02:07:22.043Z,101287.19
2022-11-17T02:09:55.097Z,101277.84
2022-11-17T02:12:28.785Z,101291.19
2022-11-17T02:14:59.348Z,101298.41
2022-11-17T02:17:42.465Z,101300.53
2022-11-17T02:20:54.689Z,101302.44
2022-11-17T02:23:47.874Z,101297.22
2022-11-17T02:26:35.539Z,101304.44
2022-11-17T02:29:23.090Z,101325.63
2022-11-17T02:32:11.237Z,101310.06
2022-11-17T02:34:49.414Z,101305.13
2022-11-17T02:37:50.279Z,101301.97
2022-11-17T02:40:39.408Z,101305.72
2022-11-17T02:43:36.756Z,101323.78
2022-11-17T02:46:16.170Z,101288.78
2022-11-17T02:48:52.731Z,101284.88
2022-11-17T02:51:25.446Z,101304.47
2022-11-17T02:53:58.737Z,101283.97
2022-11-17T02:56:28.853Z,101287.59
2022-11-17T02:59:07.129Z,101279.19
2022-11-17T03:01:37.906Z,101267.38
2022-11-17T03:04:46.821Z,101247.69
2022-11-17T03:07:52.173Z,101250.59
2022-11-17T03:10:36.364Z,101250.94
2022-11-17T03:13:18.917Z,101242.41
2022-11-17T03:15:58.990Z,101238.22
2022-11-17T03:18:44.574Z,101234.19
2022-11-17T03:21:42.181Z,101237.03
2022-11-17T03:24:16.035Z,101236.47
2022-11-17T03:26:54.291Z,101228.94
2022-11-17T03:29:28.759Z,101226.66
2022-11-17T03:32:05.372Z,101230.47
2022-11-17T03:34:41.427Z,101236.09
2022-11-17T03:37:15.757Z,101222.34
2022-11-17T03:39:47.198Z,101211.34
2022-11-17T03:42:23.277Z,101197.44
2022-11-17T03:44:57.447Z,101198.38
2022-11-17T03:47:31.479Z,101204.94
2022-11-17T03:50:34.175Z,101195.25
2022-11-17T03:53:04.622Z,101188.41
2022-11-17T03:56:03.485Z,101200.81
2022-11-17T03:58:40.133Z,101194.22
2022-11-17T04:01:10.614Z,101198.97
2022-11-17T04:03:41.299Z,101195.84
2022-11-17T04:06:11.790Z,101190.75
2022-11-17T04:08:41.754Z,101188.47
2022-11-17T04:11:29.869Z,101193.06
2022-11-17T04:14:18.293Z,101184.69
2022-11-17T04:16:48.905Z,101179.84
2022-11-17T04:19:19.030Z,101186.28
2022-11-17T04:21:49.042Z,101180.75
2022-11-17T04:24:19.690Z,101171.63
2022-11-17T04:27:08.885Z,101160.56
2022-11-17T04:29:40.193Z,101161.97
2022-11-17T04:32:10.317Z,101153.78
2022-11-17T04:34:42.881Z,101169.06
2022-11-17T04:37:18.512Z,101141.47
2022-11-17T04:39:48.897Z,101141.63
2022-11-17T04:42:18.768Z,101143.03
2022-11-17T04:44:48.724Z,101135.56
2022-11-17T04:47:18.629Z,101153.75
2022-11-17T04:49:48.673Z,101126.72
2022-11-17T04:52:19.386Z,101132.56
2022-11-17T04:54:50.159Z,101119.06
2022-11-17T04:57:20.899Z,101142.56
2022-11-17T04:59:50.799Z,101113.28
2022-11-17T05:02:21.371Z,101118.28
2022-11-17T05:04:58.377Z,101123.25
2022-11-17T05:07:29.388Z,101129.09
2022-11-17T05:09:59.721Z,101111.06
2022-11-17T05:12:47.572Z,101113.28
2022-11-17T05:15:37.265Z,101106.75
2022-11-17T05:18:07.338Z,101122.34
2022-11-17T05:20:37.345Z,101108.59
2022-11-17T05:23:26.277Z,101138.22
2022-11-17T05:25:56.240Z,101103.59
2022-11-17T05:28:26.870Z,101104.88
2022-11-17T05:30:56.913Z,101104.31
2022-11-17T05:33:27.707Z,101109.31
2022-11-17T05:35:57.861Z,101135.44
2022-11-17T05:38:27.939Z,101101.38
2022-11-17T05:40:58.550Z,101094.84
2022-11-17T05:43:28.863Z,101096.09
2022-11-17T05:45:59.277Z,101095.66
2022-11-17T05:48:31.157Z,101096.03
2022-11-17T05:51:02.755Z,101099.97
2022-11-17T05:53:34.364Z,101104.25
2022-11-17T05:56:32.240Z,101097.72
2022-11-17T05:59:14.759Z,101099.22
2022-11-17T06:02:10.727Z,101099.91
2022-11-17T06:04:42.008Z,101095.44
2022-11-17T06:07:12.692Z,101091.03
2022-11-17T06:09:44.035Z,101096.84
2022-11-17T06:12:14.369Z,101098.50
2022-11-17T06:14:45.503Z,101087.94
2022-11-17T06:17:27.917Z,101102.00
2022-11-17T06:20:10.822Z,101090.44
2022-11-17T06:22:47.042Z,101102.69
2022-11-17T06:25:22.557Z,101097.69
2022-11-17T06:27:54.144Z,101084.31
2022-11-17T06:30:24.221Z,101090.28
2022-11-17T06:32:55.470Z,101090.97
2022-11-17T06:35:26.881Z,101086.00
2022-11-17T06:37:56.917Z,101104.19
2022-11-17T06:40:26.961Z,101110.16
2022-11-17T06:43:26.309Z,101095.97
2022-11-17T06:45:56.600Z,101100.44
2022-11-17T06:48:29.336Z,101105.72
2022-11-17T06:50:59.297Z,101104.88
2022-11-17T06:53:30.314Z,101096.94
2022-11-17T06:56:06.909Z,101107.69
2022-11-17T06:58:39.872Z,101100.88
2022-11-17T07:01:12.442Z,101141.50
2022-11-17T07:03:44.583Z,101109.25
2022-11-17T07:06:15.265Z,101110.63
2022-11-17T07:08:47.948Z,101156.41
2022-11-17T07:11:18.576Z,101124.97
2022-11-17T07:13:48.643Z,101126.94
2022-11-17T07:16:24.356Z,101133.31
2022-11-17T07:18:54.997Z,101128.31
2022-11-17T07:21:25.481Z,101145.44
2022-11-17T07:23:56.397Z,101177.72
2022-11-17T07:26:26.584Z,101154.19
2022-11-17T07:28:56.837Z,101160.59
2022-11-17T07:31:26.787Z,101151.00
2022-11-17T07:33:56.823Z,101151.16
2022-11-17T07:36:26.772Z,101154.06
2022-11-17T07:38:57.244Z,101149.91
2022-11-17T07:41:28.273Z,101138.09
2022-11-17T07:43:58.384Z,101141.69
2022-11-17T07:46:28.408Z,101145.59
2022-11-17T07:48:58.412Z,101176.00
2022-11-17T07:51:28.624Z,101155.59
2022-11-17T07:53:58.549Z,101160.44
2022-11-17T07:56:28.603Z,101161.09
2022-11-17T07:58:58.652Z,101164.41
2022-11-17T08:01:28.790Z,101159.41
2022-11-17T08:04:00.426Z,101165.22
2022-11-17T08:06:31.385Z,101161.19
2022-11-17T08:09:01.928Z,101169.63
2022-11-17T08:11:34.234Z,101166.44
2022-11-17T08:14:05.145Z,101195.03
2022-11-17T08:16:35.826Z,101159.72
2022-11-17T08:19:08.240Z,101169.72
2022-11-17T08:21:39.657Z,101167.63
2022-11-17T08:24:11.175Z,101175.34
2022-11-17T08:26:43.264Z,101178.38
2022-11-17T08:29:13.599Z,101171.00
2022-11-17T08:31:47.604Z,101175.84
2022-11-17T08:34:18.024Z,101176.38
2022-11-17T08:36:48.803Z,101190.06
2022-11-17T08:39:18.881Z,101186.03
2022-11-17T08:41:49.764Z,101190.97
2022-11-17T08:44:20.200Z,101190.53
2022-11-17T08:46:50.481Z,101222.81
2022-11-17T08:49:21.391Z,101195.72
2022-11-17T08:51:52.215Z,101201.50
2022-11-17T08:54:22.676Z,101200.34
2022-11-17T08:56:53.731Z,101223.16
2022-11-17T08:59:23.640Z,101203.19
2022-11-17T09:01:53.899Z,101204.50
2022-11-17T09:04:25.026Z,101210.53
2022-11-17T09:06:55.504Z,101210.06
2022-11-17T09:09:26.067Z,101216.78
2022-11-17T09:11:56.540Z,101223.97
2022-11-17T09:14:26.604Z,101265.75
2022-11-17T09:16:56.602Z,101223.94
2022-11-17T09:19:26.516Z,101229.59
2022-11-17T09:21:56.578Z,101238.84
2022-11-17T09:24:27.912Z,101237.50
2022-11-17T09:26:58.883Z,101263.22
2022-11-17T09:29:28.840Z,101241.69
2022-11-17T09:31:59.211Z,101252.59
2022-11-17T09:34:30.668Z,101260.84
2022-11-17T09:37:01.170Z,101283.09
2022-11-17T09:39:31.501Z,101261.56
2022-11-17T09:42:02.704Z,101269.94
2022-11-17T09:44:53.784Z,101279.63
2022-11-17T09:47:46.107Z,101283.56
2022-11-17T09:50:40.554Z,101296.94
2022-11-17T09:53:51.469Z,101295.41
2022-11-17T09:56:21.864Z,101342.13
2022-11-17T09:59:00.228Z,101304.34
2022-11-17T10:01:32.044Z,101309.88
2022-11-17T10:04:02.772Z,101306.59
2022-11-17T10:06:34.223Z,101307.78
2022-11-17T10:09:13.425Z,101311.72
2022-11-17T10:11:46.316Z,101315.56
2022-11-17T10:14:24.454Z,101314.09
2022-11-17T10:17:00.640Z,101326.13
2022-11-17T10:19:32.618Z,101328.88
2022-11-17T10:22:06.867Z,101329.94
2022-11-17T10:24:38.618Z,101328.41
2022-11-17T10:27:21.503Z,101331.97
2022-11-17T10:30:06.290Z,101338.16
2022-11-17T10:32:54.313Z,101342.69
2022-11-17T10:35:27.225Z,101340.06
2022-11-17T10:37:59.896Z,101364.69
2022-11-17T10:40:47.411Z,101355.84
2022-11-17T10:43:19.929Z,101346.16
2022-11-17T10:46:06.903Z,101353.22
2022-11-17T10:48:40.063Z,101361.91
2022-11-17T10:51:21.703Z,101369.94
2022-11-17T10:54:19.732Z,101370.06
2022-11-17T10:56:56.468Z,101375.41
2022-11-17T10:59:44.896Z,101376.34
2022-11-17T11:02:38.968Z,101377.31
2022-11-17T11:05:15.010Z,101380.06
2022-11-17T11:07:45.573Z,101381.84
2022-11-17T11:10:18.244Z,101382.78
2022-11-17T11:13:17.741Z,101407.63
2022-11-17T11:15:50.441Z,101419.59
2022-11-17T11:18:22.242Z,101397.84
2022-11-17T11:21:14.225Z,101403.81
2022-11-17T11:24:22.361Z,101401.91
2022-11-17T11:27:24.601Z,101401.09
2022-11-17T11:30:17.246Z,101411.81
2022-11-17T11:33:01.394Z,101420.00
2022-11-17T11:36:06.215Z,101436.22
2022-11-17T11:38:56.681Z,101429.53
2022-11-17T11:41:56.383Z,101420.28
2022-11-17T11:44:34.914Z,101442.78
2022-11-17T11:47:08.174Z,101422.00
2022-11-17T11:49:59.739Z,101436.38
2022-11-17T11:52:36.025Z,101440.28
2022-11-17T11:55:10.215Z,101439.03
2022-11-17T11:57:48.353Z,101441.34
2022-11-17T12:00:23.358Z,101444.41
2022-11-17T12:03:15.018Z,101452.59
2022-11-17T12:06:34.936Z,101452.69
2022-11-17T12:09:18.803Z,101459.19
2022-11-17T12:12:02.633Z,101457.69
2022-11-17T12:14:36.597Z,101464.78
2022-11-17T12:17:10.916Z,101463.06
2022-11-17T12:19:54.832Z,101475.91
2022-11-17T12:22:41.300Z,101473.06
2022-11-17T12:25:50.486Z,101484.31
2022-11-17T12:28:28.972Z,101486.66
2022-11-17T12:31:10.140Z,101495.13
2022-11-17T12:33:55.402Z,101500.81
2022-11-17T12:36:34.587Z,101501.38
2022-11-17T12:39:08.839Z,101511.38
2022-11-17T12:41:54.663Z,101512.63
2022-11-17T12:44:40.931Z,101513.75
2022-11-17T12:47:23.936Z,101514.97
2022-11-17T12:50:21.833Z,101517.66
2022-11-17T12:53:03.304Z,101526.72
2022-11-17T12:55:46.834Z,101528.66
2022-11-17T12:58:52.224Z,101540.09
2022-11-17T13:01:47.778Z,101540.66
2022-11-17T13:04:49.406Z,101543.19
2022-11-17T13:07:24.072Z,101539.63
2022-11-17T13:10:00.430Z,101534.38
2022-11-17T13:12:34.455Z,101539.53
2022-11-17T13:15:09.052Z,101535.91
2022-11-17T13:17:45.544Z,101552.44
2022-11-17T13:20:35.351Z,101541.78
2022-11-17T13:23:27.494Z,101534.59
2022-11-17T13:26:21.279Z,101538.78
2022-11-17T13:29:07.574Z,101545.81
2022-11-17T13:31:39.044Z,101549.25
2022-11-17T13:34:16.134Z,101550.38
2022-11-17T13:36:58.626Z,101540.56
2022-11-17T13:39:29.997Z,101553.00
2022-11-17T13:42:03.025Z,101543.06
2022-11-17T13:44:36.105Z,101560.81
2022-11-17T13:47:49.006Z,101559.97
2022-11-17T13:50:31.323Z,101568.06
2022-11-17T13:53:06.514Z,101567.31
2022-11-17T13:55:38.502Z,101572.56
2022-11-17T13:58:12.814Z,101568.06
2022-11-17T14:00:55.729Z,101568.00
2022-11-17T14:03:37.721Z,101573.88
2022-11-17T14:06:12.310Z,101572.97
2022-11-17T14:08:46.855Z,101580.66
2022-11-17T14:11:23.462Z,101613.63
2022-11-17T14:14:02.548Z,101587.53
2022-11-17T14:16:42.237Z,101579.53
2022-11-17T14:19:19.526Z,101576.91
2022-11-17T14:22:06.626Z,101596.16
2022-11-17T14:24:38.715Z,101590.16
2022-11-17T14:27:49.081Z,101595.38
2022-11-17T14:30:22.499Z,101598.09
2022-11-17T14:32:53.319Z,101610.53
2022-11-17T14:35:25.388Z,101608.09
2022-11-17T14:37:59.030Z,101640.88
2022-11-17T14:40:30.964Z,101619.44
2022-11-17T14:43:02.334Z,101640.97
2022-11-17T14:45:36.691Z,101633.66
2022-11-17T14:48:08.945Z,101632.22
2022-11-17T14:50:41.586Z,101656.25
2022-11-17T14:53:15.416Z,101622.44
2022-11-17T14:55:46.783Z,101633.09
2022-11-17T14:58:20.134Z,101631.97
2022-11-17T15:00:52.405Z,101632.81
2022-11-17T15:03:26.556Z,101654.47
2022-11-17T15:05:57.627Z,101642.34
2022-11-17T15:08:28.201Z,101634.50
2022-11-17T15:10:59.201Z,101648.41
2022-11-17T15:13:29.919Z,101636.00
2022-11-17T15:16:09.832Z,101631.53
2022-11-17T15:18:42.038Z,101633.22
2022-11-17T15:21:14.210Z,101637.63
2022-11-17T15:23:46.779Z,101654.22
2022-11-17T15:26:25.292Z,101654.22
2022-11-17T15:28:59.385Z,101662.16
2022-11-17T15:31:32.045Z,101660.56
2022-11-17T15:34:03.949Z,101661.84
2022-11-17T15:36:34.637Z,101667.31
2022-11-17T15:39:05.189Z,101704.31
2022-11-17T15:41:35.947Z,101672.53
2022-11-17T15:44:06.547Z,101686.84
2022-11-17T15:46:39.662Z,101684.63
2022-11-17T15:49:14.197Z,101683.19
2022-11-17T15:51:45.468Z,101686.38
2022-11-17T15:54:20.307Z,101696.66
2022-11-17T15:56:53.253Z,101721.94
2022-11-17T15:59:24.031Z,101696.50
2022-11-17T16:01:54.924Z,101695.47
2022-11-17T16:04:25.475Z,101717.16
2022-11-17T16:06:57.260Z,101714.38
2022-11-17T16:09:29.059Z,101722.13
2022-11-17T16:12:01.274Z,101720.28
2022-11-17T16:14:32.341Z,101747.25
2022-11-17T16:17:03.814Z,101733.94
2022-11-17T16:19:35.618Z,101717.25
2022-11-17T16:22:08.093Z,101722.41
2022-11-17T16:24:39.580Z,101725.88
2022-11-17T16:27:13.704Z,101717.09
2022-11-17T16:29:45.492Z,101717.25
2022-11-17T16:32:16.266Z,101722.66
2022-11-17T16:34:50.258Z,101716.56
2022-11-17T16:37:21.003Z,101747.09
2022-11-17T16:39:51.629Z,101716.06
2022-11-17T16:42:21.694Z,101739.81
2022-11-17T16:44:53.483Z,101715.78
2022-11-17T16:47:24.185Z,101703.88
2022-11-17T16:49:55.853Z,101714.47
2022-11-17T16:52:26.514Z,101715.66
2022-11-17T16:55:03.277Z,101710.34
2022-11-17T16:57:36.093Z,101698.81
2022-11-17T17:00:08.534Z,101703.81
2022-11-17T17:02:38.878Z,101707.25
2022-11-17T17:05:09.947Z,101713.50
2022-11-17T17:07:40.647Z,101713.56
2022-11-17T17:10:11.059Z,101712.81
2022-11-17T17:12:41.124Z,101721.56
2022-11-17T17:15:13.054Z,101718.94
2022-11-17T17:17:43.442Z,101710.44
2022-11-17T17:20:14.421Z,101711.25
2022-11-17T17:22:44.618Z,101769.03
2022-11-17T17:25:16.395Z,101724.72
2022-11-17T17:27:46.703Z,101736.06
2022-11-17T17:30:17.070Z,101739.69
2022-11-17T17:32:47.167Z,101729.41
2022-11-17T17:35:17.132Z,101754.91
2022-11-17T17:37:48.700Z,101768.88
2022-11-17T17:40:20.225Z,101759.56
2022-11-17T17:42:52.054Z,101754.59
2022-11-17T17:45:22.673Z,101761.03
2022-11-17T17:47:54.195Z,101781.31
2022-11-17T17:50:26.278Z,101796.47
2022-11-17T17:52:56.767Z,101780.88
2022-11-17T17:55:26.729Z,101785.34
2022-11-17T17:57:57.838Z,101783.63
2022-11-17T18:00:29.629Z,101794.00
2022-11-17T18:03:01.770Z,101794.88
2022-11-17T18:05:33.605Z,101791.31
2022-11-17T18:08:06.252Z,101798.25
2022-11-17T18:10:39.119Z,101798.31
2022-11-17T18:13:10.973Z,101798.19
2022-11-17T18:15:42.021Z,101805.84
2022-11-17T18:18:12.268Z,101801.41
2022-11-17T18:20:42.262Z,101790.03
2022-11-17T18:23:12.466Z,101779.59
2022-11-17T18:25:42.454Z,101780.28
2022-11-17T18:28:14.027Z,101789.06
2022-11-17T18:30:44.980Z,101785.66
2022-11-17T18:33:14.934Z,101818.75
2022-11-17T18:35:46.090Z,101790.19
2022-11-17T18:38:16.848Z,101783.44
2022-11-17T18:40:48.167Z,101779.28
2022-11-17T18:43:19.277Z,101788.09
2022-11-17T18:45:49.335Z,101776.03
2022-11-17T18:48:20.864Z,101770.06
2022-11-17T18:51:17.663Z,101763.84
2022-11-17T18:53:42.389Z,101773.50
2022-11-17T18:56:17.432Z,101769.06
2022-11-17T18:58:47.626Z,101765.53
2022-11-17T19:01:21.563Z,101761.84
2022-11-17T19:03:56.446Z,101756.50
2022-11-17T19:06:28.017Z,101742.38
2022-11-17T19:09:02.041Z,101735.22
2022-11-17T19:11:35.909Z,101741.16
2022-11-17T19:14:07.510Z,101735.03
2022-11-17T19:16:44.806Z,101731.41
2022-11-17T19:19:16.497Z,101727.81
2022-11-17T19:21:47.144Z,101728.63
2022-11-17T19:24:19.426Z,101731.19
2022-11-17T19:26:49.695Z,101729.34
2022-11-17T19:29:21.201Z,101733.47
2022-11-17T19:32:01.084Z,101739.31
2022-11-17T19:34:32.264Z,101785.31
2022-11-17T19:37:02.546Z,101728.72
2022-11-17T19:39:32.529Z,101716.34
2022-11-17T19:42:03.083Z,101714.66
2022-11-17T19:44:34.839Z,101720.97
2022-11-17T19:47:06.282Z,101742.16
2022-11-17T19:49:36.444Z,101721.44
2022-11-17T19:52:07.976Z,101737.16
2022-11-17T19:54:39.791Z,101730.41
2022-11-17T19:57:11.808Z,101722.13
2022-11-17T19:59:41.969Z,101741.00
2022-11-17T20:02:15.279Z,101768.00
2022-11-17T20:04:45.596Z,101755.13
2022-11-17T20:07:15.772Z,101728.25
2022-11-17T20:09:46.656Z,101736.38
2022-11-17T20:12:17.087Z,101735.63
2022-11-17T20:14:48.494Z,101777.50
2022-11-17T20:17:19.639Z,101735.84
2022-11-17T20:19:50.050Z,101742.81
2022-11-17T20:22:20.341Z,101738.44
2022-11-17T20:24:49.740Z,101738.44
2022-11-17T20:27:20.589Z,101749.81
2022-11-17T20:29:51.634Z,101751.56
2022-11-17T20:32:22.104Z,101740.97
2022-11-17T20:34:52.344Z,101741.75
2022-11-17T20:37:22.393Z,101777.38
2022-11-17T20:39:53.298Z,101733.78
2022-11-17T20:42:24.789Z,101790.50
2022-11-17T20:44:55.200Z,101741.75
2022-11-17T20:47:30.469Z,101726.22
2022-11-17T20:50:01.847Z,101729.22
2022-11-17T20:52:33.463Z,101721.41
2022-11-17T20:55:04.605Z,101721.91
2022-11-17T20:57:35.508Z,101740.31
2022-11-17T21:00:06.233Z,101756.97
2022-11-17T21:02:36.748Z,101740.38
2022-11-17T21:05:07.023Z,101744.84
2022-11-17T21:07:38.273Z,101713.69
2022-11-17T21:10:09.618Z,101706.94
2022-11-17T21:12:40.916Z,101706.94
2022-11-17T21:15:12.798Z,101717.44
2022-11-17T21:18:00.926Z,101707.22
2022-11-17T21:20:32.491Z,101713.16
2022-11-17T21:23:04.669Z,101713.84
2022-11-17T21:25:38.056Z,101723.28
2022-11-17T21:28:08.205Z,101712.84
2022-11-17T21:30:38.519Z,101724.28
2022-11-17T21:33:08.624Z,101733.91
2022-11-17T21:35:39.977Z,101734.09
2022-11-17T21:38:10.128Z,101739.38
2022-11-17T21:40:40.890Z,101740.50
2022-11-17T21:43:10.880Z,101742.19
2022-11-17T21:45:41.132Z,101761.38
2022-11-17T21:48:11.525Z,101755.22
2022-11-17T21:50:46.415Z,101758.75
2022-11-17T21:53:16.520Z,101801.31
2022-11-17T21:55:46.558Z,101786.75
2022-11-17T21:58:17.296Z,101791.00
2022-11-17T22:00:47.814Z,101780.59
2022-11-17T22:03:17.817Z,101786.50
2022-11-17T22:05:50.078Z,101786.44
2022-11-17T22:08:22.426Z,101787.28
2022-11-17T22:10:51.841Z,101791.59
2022-11-17T22:13:22.867Z,101808.00
2022-11-17T22:15:53.848Z,101813.91
2022-11-17T22:18:25.068Z,101804.19
2022-11-17T22:20:55.881Z,101808.44
2022-11-17T22:23:25.968Z,101818.78
2022-11-17T22:26:05.615Z,101807.44
2022-11-17T22:28:36.134Z,101805.84
2022-11-17T22:31:11.368Z,101811.81
2022-11-17T22:33:41.519Z,101820.53
2022-11-17T22:36:13.060Z,101832.81
2022-11-17T22:38:44.429Z,101827.59
2022-11-17T22:41:15.923Z,101822.38
2022-11-17T22:43:49.509Z,101815.47
2022-11-17T22:46:22.349Z,101817.31
2022-11-17T22:48:52.555Z,101824.41
2022-11-17T22:51:41.446Z,101845.50
2022-11-17T22:54:12.342Z,101841.50
2022-11-17T22:56:42.832Z,101858.22
2022-11-17T22:59:12.799Z,101855.78
2022-11-17T23:01:43.059Z,101864.56
2022-11-17T23:04:15.238Z,101865.41
2022-11-17T23:06:45.928Z,101869.84
2022-11-17T23:09:16.414Z,101873.09
2022-11-17T23:11:46.081Z,101883.34
2022-11-17T23:14:16.487Z,101899.75
2022-11-17T23:16:46.523Z,101894.25
2022-11-17T23:19:16.839Z,101889.75
2022-11-17T23:21:47.508Z,101902.59
2022-11-17T23:24:18.341Z,101899.78
2022-11-17T23:26:50.041Z,101899.56
2022-11-17T23:29:20.374Z,101914.19
2022-11-17T23:31:50.605Z,101907.84
2022-11-17T23:34:21.628Z,101921.44
2022-11-17T23:36:52.814Z,101903.81
2022-11-17T23:39:22.922Z,101925.25
2022-11-17T23:41:53.667Z,101916.16
2022-11-17T23:44:23.617Z,101945.50
2022-11-17T23:46:53.566Z,101923.63
2022-11-17T23:49:23.855Z,101951.97
2022-11-17T23:51:53.791Z,101933.84
2022-11-17T23:54:23.889Z,101944.22
2022-11-17T23:56:55.479Z,101938.94
2022-11-17T23:59:25.662Z,101940.56
